Aviation Digital Data Service (ADDS)

Output produced by METARs form (2239 UTC 23 March 2019)
found at http://www.aviationweather.gov/metar/data/
 
METAR text: KRVS 232153Z 16009KT 10SM OVC014 13/09 A3000 RMK AO2 SLP162 T01280094
Conditions at: KRVS (TULSA , OK, US) observed 2153 UTC 23 March 2019
Temperature: 12.8°C (55°F)
Dewpoint: 9.4°C (49°F) [RH = 80%]
Pressure (altimeter): 30.00 inches Hg (1016.0 mb)
[Sea-level pressure: 1016.2 mb]
Winds: from the SSE (160 degrees) at 10 MPH (9 knots; 4.6 m/s)
Visibility: 10 or more miles (16+ km)
Ceiling: 1400 feet AGL
Clouds: overcast cloud deck at 1400 feet AGL
Weather: no significant weather observed at this time

METAR text: KRVS 232135Z 16008KT 10SM BKN014 OVC020 13/10 A3000 RMK AO2 T01330100
Conditions at: KRVS (TULSA , OK, US) observed 2135 UTC 23 March 2019
Temperature: 13.3°C (56°F)
Dewpoint: 10.0°C (50°F) [RH = 80%]
Pressure (altimeter): 30.00 inches Hg (1016.0 mb)
Winds: from the SSE (160 degrees) at 9 MPH (8 knots; 4.1 m/s)
Visibility: 10 or more miles (16+ km)
Ceiling: 1400 feet AGL
Clouds: broken clouds at 1400 feet AGL
overcast cloud deck at 2000 feet AGL
Weather: no significant weather observed at this time

METAR text: KRVS 232128Z 17010KT 10SM SCT014 OVC020 13/10 A3000 RMK AO2 T01330100
Conditions at: KRVS (TULSA , OK, US) observed 2128 UTC 23 March 2019
Temperature: 13.3°C (56°F)
Dewpoint: 10.0°C (50°F) [RH = 80%]
Pressure (altimeter): 30.00 inches Hg (1016.0 mb)
Winds: from the S (170 degrees) at 12 MPH (10 knots; 5.1 m/s)
Visibility: 10 or more miles (16+ km)
Ceiling: 2000 feet AGL
Clouds: scattered clouds at 1400 feet AGL
overcast cloud deck at 2000 feet AGL
Weather: no significant weather observed at this time

METAR text: KRVS 232053Z 16010KT 10SM OVC014 13/11 A2999 RMK AO2 RAB24E38 SLP157 P0000 60001 T01330106 56007
Conditions at: KRVS (TULSA , OK, US) observed 2053 UTC 23 March 2019
Temperature: 13.3°C (56°F)
Dewpoint: 10.6°C (51°F) [RH = 84%]
Pressure (altimeter): 29.99 inches Hg (1015.7 mb)
[Sea-level pressure: 1015.7 mb]
Winds: from the SSE (160 degrees) at 12 MPH (10 knots; 5.1 m/s)
Visibility: 10 or more miles (16+ km)
Ceiling: 1400 feet AGL
Clouds: overcast cloud deck at 1400 feet AGL
Weather: no significant weather observed at this time

METAR text: KRVS 231953Z 16008KT 10SM FEW018 BKN025 OVC041 13/09 A2999 RMK AO2 RAB13E35 SLP159 P0001 T01330094
Conditions at: KRVS (TULSA , OK, US) observed 1953 UTC 23 March 2019
Temperature: 13.3°C (56°F)
Dewpoint: 9.4°C (49°F) [RH = 77%]
Pressure (altimeter): 29.99 inches Hg (1015.7 mb)
[Sea-level pressure: 1015.9 mb]
Winds: from the SSE (160 degrees) at 9 MPH (8 knots; 4.1 m/s)
Visibility: 10 or more miles (16+ km)
Ceiling: 2500 feet AGL
Clouds: few clouds at 1800 feet AGL
broken clouds at 2500 feet AGL
overcast cloud deck at 4100 feet AGL
Weather: no significant weather observed at this time

METAR text: KRVS 231949Z 17009KT 10SM FEW018 BKN025 OVC041 13/09 A2999 RMK AO2 RAB13E35 P0001
Conditions at: KRVS (TULSA , OK, US) observed 1949 UTC 23 March 2019
Temperature: 13.0°C (55°F)
Dewpoint: 9.0°C (48°F) [RH = 77%]
Pressure (altimeter): 29.99 inches Hg (1015.7 mb)
Winds: from the S (170 degrees) at 10 MPH (9 knots; 4.6 m/s)
Visibility: 10 or more miles (16+ km)
Ceiling: 2500 feet AGL
Clouds: few clouds at 1800 feet AGL
broken clouds at 2500 feet AGL
overcast cloud deck at 4100 feet AGL
Weather: no significant weather observed at this time

METAR text: KRVS 231853Z 15011KT 10SM FEW023 BKN040 OVC050 14/08 A3001 RMK AO2 RAB1755E08 SLP165 P0000 T01390083
Conditions at: KRVS (TULSA , OK, US) observed 1853 UTC 23 March 2019
Temperature: 13.9°C (57°F)
Dewpoint: 8.3°C (47°F) [RH = 69%]
Pressure (altimeter): 30.01 inches Hg (1016.3 mb)
[Sea-level pressure: 1016.5 mb]
Winds: from the SSE (150 degrees) at 13 MPH (11 knots; 5.7 m/s)
Visibility: 10 or more miles (16+ km)
Ceiling: 4000 feet AGL
Clouds: few clouds at 2300 feet AGL
broken clouds at 4000 feet AGL
overcast cloud deck at 5000 feet AGL
Weather: no significant weather observed at this time

METAR text: KRVS 231753Z 14010G18KT 10SM OVC044 12/08 A3004 RMK AO2 RAE36 SLP176 P0000 60015 T01220078 10128 20106 58015
Conditions at: KRVS (TULSA , OK, US) observed 1753 UTC 23 March 2019
Temperature: 12.2°C (54°F)
Dewpoint: 7.8°C (46°F) [RH = 74%]
Pressure (altimeter): 30.04 inches Hg (1017.4 mb)
[Sea-level pressure: 1017.6 mb]
Winds: from the SE (140 degrees) at 12 MPH (10 knots; 5.1 m/s)
gusting to 21 MPH (18 knots; 9.3 m/s)
Visibility: 10 or more miles (16+ km)
Ceiling: 4400 feet AGL
Clouds: overcast cloud deck at 4400 feet AGL
Weather: no significant weather observed at this time

METAR text: KRVS 231653Z 13010KT 9SM -RA BKN055 OVC080 11/08 A3006 RMK AO2 WSHFT 1613 SLP184 P0014 T01110078
Conditions at: KRVS (TULSA , OK, US) observed 1653 UTC 23 March 2019
Temperature: 11.1°C (52°F)
Dewpoint: 7.8°C (46°F) [RH = 80%]
Pressure (altimeter): 30.06 inches Hg (1018.0 mb)
[Sea-level pressure: 1018.4 mb]
Winds: from the SE (130 degrees) at 12 MPH (10 knots; 5.1 m/s)
Visibility: 9 miles (14 km)
Ceiling: 5500 feet AGL
Clouds: broken clouds at 5500 feet AGL
overcast cloud deck at 8000 feet AGL
Weather: -RA  (light rain)

METAR text: KRVS 231633Z 14015G21KT 9SM -RA FEW037 SCT060 OVC085 11/08 A3006 RMK AO2 WSHFT 1613 P0011 T01110078
Conditions at: KRVS (TULSA , OK, US) observed 1633 UTC 23 March 2019
Temperature: 11.1°C (52°F)
Dewpoint: 7.8°C (46°F) [RH = 80%]
Pressure (altimeter): 30.06 inches Hg (1018.0 mb)
Winds: from the SE (140 degrees) at 17 MPH (15 knots; 7.7 m/s)
gusting to 24 MPH (21 knots; 10.8 m/s)
Visibility: 9 miles (14 km)
Ceiling: 8500 feet AGL
Clouds: few clouds at 3700 feet AGL
scattered clouds at 6000 feet AGL
overcast cloud deck at 8500 feet AGL
Weather: -RA  (light rain)

METAR text: KRVS 231619Z 12017KT 3SM -RA SCT039 BKN070 OVC090 11/08 A3007 RMK AO2 PRESFR P0010 T01110078
Conditions at: KRVS (TULSA , OK, US) observed 1619 UTC 23 March 2019
Temperature: 11.1°C (52°F)
Dewpoint: 7.8°C (46°F) [RH = 80%]
Pressure (altimeter): 30.07 inches Hg (1018.4 mb)
Winds: from the ESE (120 degrees) at 20 MPH (17 knots; 8.7 m/s)
Visibility: 3 miles ( 5 km)
Ceiling: 7000 feet AGL
Clouds: scattered clouds at 3900 feet AGL
broken clouds at 7000 feet AGL
overcast cloud deck at 9000 feet AGL
Weather: -RA  (light rain)

METAR text: KRVS 231610Z 13005KT 1 3/4SM +RA FEW033 BKN049 OVC090 12/07 A3011 RMK AO2 P0008 T01170072
Conditions at: KRVS (TULSA , OK, US) observed 1610 UTC 23 March 2019
Temperature: 11.7°C (53°F)
Dewpoint: 7.2°C (45°F) [RH = 74%]
Pressure (altimeter): 30.11 inches Hg (1019.7 mb)
Winds: from the SE (130 degrees) at 6 MPH (5 knots; 2.6 m/s)
Visibility: 1.75 miles (2.82 km)
Ceiling: 4900 feet AGL
Clouds: few clouds at 3300 feet AGL
broken clouds at 4900 feet AGL
overcast cloud deck at 9000 feet AGL
Weather: +RA  (heavy rain)

METAR text: KRVS 231553Z 14003KT 10SM -RA BKN065 OVC090 12/07 A3009 RMK AO2 RAB46 SLP194 P0000 T01220072
Conditions at: KRVS (TULSA , OK, US) observed 1553 UTC 23 March 2019
Temperature: 12.2°C (54°F)
Dewpoint: 7.2°C (45°F) [RH = 71%]
Pressure (altimeter): 30.09 inches Hg (1019.0 mb)
[Sea-level pressure: 1019.4 mb]
Winds: from the SE (140 degrees) at 3 MPH (3 knots; 1.5 m/s)
Visibility: 10 or more miles (16+ km)
Ceiling: 6500 feet AGL
Clouds: broken clouds at 6500 feet AGL
overcast cloud deck at 9000 feet AGL
Weather: -RA  (light rain)

METAR text: KRVS 231453Z 04005KT 10SM OVC065 13/08 A3008 RMK AO2 RAE40 SLP191 P0001 60001 T01280078 53010
Conditions at: KRVS (TULSA , OK, US) observed 1453 UTC 23 March 2019
Temperature: 12.8°C (55°F)
Dewpoint: 7.8°C (46°F) [RH = 72%]
Pressure (altimeter): 30.08 inches Hg (1018.7 mb)
[Sea-level pressure: 1019.1 mb]
Winds: from the NE (40 degrees) at 6 MPH (5 knots; 2.6 m/s)
Visibility: 10 or more miles (16+ km)
Ceiling: 6500 feet AGL
Clouds: overcast cloud deck at 6500 feet AGL
Weather: no significant weather observed at this time

METAR text: KRVS 231353Z 00000KT 10SM -RA OVC070 13/05 A3007 RMK AO2 RAB53 SLP187 P0000 T01280050
Conditions at: KRVS (TULSA , OK, US) observed 1353 UTC 23 March 2019
Temperature: 12.8°C (55°F)
Dewpoint: 5.0°C (41°F) [RH = 59%]
Pressure (altimeter): 30.07 inches Hg (1018.4 mb)
[Sea-level pressure: 1018.7 mb]
Winds: calm
Visibility: 10 or more miles (16+ km)
Ceiling: 7000 feet AGL
Clouds: overcast cloud deck at 7000 feet AGL
Weather: -RA  (light rain)

METAR text: KRVS 231253Z 11007KT 8SM OVC070 12/06 A3005 RMK AO2 SLP186 T01170056
Conditions at: KRVS (TULSA , OK, US) observed 1253 UTC 23 March 2019
Temperature: 11.7°C (53°F)
Dewpoint: 5.6°C (42°F) [RH = 66%]
Pressure (altimeter): 30.05 inches Hg (1017.7 mb)
[Sea-level pressure: 1018.6 mb]
Winds: from the ESE (110 degrees) at 8 MPH (7 knots; 3.6 m/s)
Visibility: 8 miles (13 km)
Ceiling: 7000 feet AGL
Clouds: overcast cloud deck at 7000 feet AGL
Weather: no significant weather observed at this time

METAR text: KRVS 231153Z 03008KT 10SM OVC070 11/07 A3005 RMK AO2 RAE1054 SLP185 P0000 60006 70006 T01060072 10144 20083 50009
Conditions at: KRVS (TULSA , OK, US) observed 1153 UTC 23 March 2019
Temperature: 10.6°C (51°F)
Dewpoint: 7.2°C (45°F) [RH = 79%]
Pressure (altimeter): 30.05 inches Hg (1017.7 mb)
[Sea-level pressure: 1018.5 mb]
Winds: from the NNE (30 degrees) at 9 MPH (8 knots; 4.1 m/s)
Visibility: 10 or more miles (16+ km)
Ceiling: 7000 feet AGL
Clouds: overcast cloud deck at 7000 feet AGL
Weather: no significant weather observed at this time

METAR text: KRVS 231053Z AUTO 00000KT 10SM -RA OVC080 10/08 A3007 RMK AO2 SLP190 P0006 T01000078 TSNO
Conditions at: KRVS (TULSA , OK, US) observed 1053 UTC 23 March 2019
Temperature: 10.0°C (50°F)
Dewpoint: 7.8°C (46°F) [RH = 86%]
Pressure (altimeter): 30.07 inches Hg (1018.4 mb)
[Sea-level pressure: 1019.0 mb]
Winds: calm
Visibility: 10 or more miles (16+ km)
Ceiling: 8000 feet AGL
Clouds: overcast cloud deck at 8000 feet AGL
Weather: -RA  (light rain)

METAR text: KRVS 230953Z AUTO 31008KT 10SM -RA BKN070 OVC090 12/03 A3005 RMK AO2 RAB48 PRESRR SLP184 P0000 T01170028 TSNO
Conditions at: KRVS (TULSA , OK, US) observed 0953 UTC 23 March 2019
Temperature: 11.7°C (53°F)
Dewpoint: 2.8°C (37°F) [RH = 54%]
Pressure (altimeter): 30.05 inches Hg (1017.7 mb)
[Sea-level pressure: 1018.4 mb]
Winds: from the NW (310 degrees) at 9 MPH (8 knots; 4.1 m/s)
Visibility: 10 or more miles (16+ km)
Ceiling: 7000 feet AGL
Clouds: broken clouds at 7000 feet AGL
overcast cloud deck at 9000 feet AGL
Weather: -RA  (light rain)

METAR text: KRVS 230853Z AUTO 24004KT 10SM FEW110 11/03 A3003 RMK AO2 SLP175 T01110028 56014 TSNO
Conditions at: KRVS (TULSA , OK, US) observed 0853 UTC 23 March 2019
Temperature: 11.1°C (52°F)
Dewpoint: 2.8°C (37°F) [RH = 57%]
Pressure (altimeter): 30.03 inches Hg (1017.0 mb)
[Sea-level pressure: 1017.5 mb]
Winds: from the WSW (240 degrees) at 5 MPH (4 knots; 2.1 m/s)
Visibility: 10 or more miles (16+ km)
Ceiling: at least 12,000 feet AGL
Clouds: few clouds at 11000 feet AGL
Weather: automated observation with no human augmentation;
there may or may not be significant weather present at this time

METAR text: KRVS 230753Z AUTO 17003KT 10SM CLR 09/03 A3003 RMK AO2 SLP176 T00940028 TSNO
Conditions at: KRVS (TULSA , OK, US) observed 0753 UTC 23 March 2019
Temperature: 9.4°C (49°F)
Dewpoint: 2.8°C (37°F) [RH = 63%]
Pressure (altimeter): 30.03 inches Hg (1017.0 mb)
[Sea-level pressure: 1017.6 mb]
Winds: from the S (170 degrees) at 3 MPH (3 knots; 1.5 m/s)
Visibility: 10 or more miles (16+ km)
Ceiling: at least 12,000 feet AGL
Clouds: sky clear below 12,000 feet AGL
Weather: automated observation with no human augmentation;
there may or may not be significant weather present at this time

METAR text: KRVS 230653Z AUTO 00000KT 10SM CLR 09/02 A3004 RMK AO2 SLP180 T00940017 TSNO
Conditions at: KRVS (TULSA , OK, US) observed 0653 UTC 23 March 2019
Temperature: 9.4°C (49°F)
Dewpoint: 1.7°C (35°F) [RH = 59%]
Pressure (altimeter): 30.04 inches Hg (1017.4 mb)
[Sea-level pressure: 1018.0 mb]
Winds: calm
Visibility: 10 or more miles (16+ km)
Ceiling: at least 12,000 feet AGL
Clouds: sky clear below 12,000 feet AGL
Weather: automated observation with no human augmentation;
there may or may not be significant weather present at this time

METAR text: KRVS 230553Z AUTO 00000KT 10SM SCT120 11/03 A3007 RMK AO2 SLP190 T01060028 10194 20100 402170011 58003 TSNO
Conditions at: KRVS (TULSA , OK, US) observed 0553 UTC 23 March 2019
Temperature: 10.6°C (51°F)
Dewpoint: 2.8°C (37°F) [RH = 58%]
Pressure (altimeter): 30.07 inches Hg (1018.4 mb)
[Sea-level pressure: 1019.0 mb]
Winds: calm
Visibility: 10 or more miles (16+ km)
Ceiling: at least 12,000 feet AGL
Clouds: scattered clouds at 12000 feet AGL
Weather: automated observation with no human augmentation;
there may or may not be significant weather present at this time

METAR text: KRVS 230453Z AUTO 00000KT 10SM CLR 11/03 A3007 RMK AO2 SLP192 T01060028 TSNO
Conditions at: KRVS (TULSA , OK, US) observed 0453 UTC 23 March 2019
Temperature: 10.6°C (51°F)
Dewpoint: 2.8°C (37°F) [RH = 58%]
Pressure (altimeter): 30.07 inches Hg (1018.4 mb)
[Sea-level pressure: 1019.2 mb]
Winds: calm
Visibility: 10 or more miles (16+ km)
Ceiling: at least 12,000 feet AGL
Clouds: sky clear below 12,000 feet AGL
Weather: automated observation with no human augmentation;
there may or may not be significant weather present at this time

METAR text: KRVS 230353Z AUTO 00000KT 10SM CLR 11/03 A3009 RMK AO2 SLP192 T01060033 TSNO
Conditions at: KRVS (TULSA , OK, US) observed 0353 UTC 23 March 2019
Temperature: 10.6°C (51°F)
Dewpoint: 3.3°C (38°F) [RH = 61%]
Pressure (altimeter): 30.09 inches Hg (1019.0 mb)
[Sea-level pressure: 1019.2 mb]
Winds: calm
Visibility: 10 or more miles (16+ km)
Ceiling: at least 12,000 feet AGL
Clouds: sky clear below 12,000 feet AGL
Weather: automated observation with no human augmentation;
there may or may not be significant weather present at this time

METAR text: KRVS 230253Z 00000KT 10SM CLR 11/02 A3008 RMK AO2 SLP189 LAST T01060022 53004
Conditions at: KRVS (TULSA , OK, US) observed 0253 UTC 23 March 2019
Temperature: 10.6°C (51°F)
Dewpoint: 2.2°C (36°F) [RH = 56%]
Pressure (altimeter): 30.08 inches Hg (1018.7 mb)
[Sea-level pressure: 1018.9 mb]
Winds: calm
Visibility: 10 or more miles (16+ km)
Ceiling: at least 12,000 feet AGL
Clouds: sky clear below 12,000 feet AGL
Weather: no significant weather observed at this time

METAR text: KRVS 230153Z 00000KT 10SM CLR 12/03 A3006 RMK AO2 SLP185 T01170028
Conditions at: KRVS (TULSA , OK, US) observed 0153 UTC 23 March 2019
Temperature: 11.7°C (53°F)
Dewpoint: 2.8°C (37°F) [RH = 54%]
Pressure (altimeter): 30.06 inches Hg (1018.0 mb)
[Sea-level pressure: 1018.5 mb]
Winds: calm
Visibility: 10 or more miles (16+ km)
Ceiling: at least 12,000 feet AGL
Clouds: sky clear below 12,000 feet AGL
Weather: no significant weather observed at this time

METAR text: KRVS 230053Z 00000KT 10SM CLR 16/M01 A3006 RMK AO2 SLP185 T01561011
Conditions at: KRVS (TULSA , OK, US) observed 0053 UTC 23 March 2019
Temperature: 15.6°C (60°F)
Dewpoint: -1.1°C (30°F) [RH = 32%]
Pressure (altimeter): 30.06 inches Hg (1018.0 mb)
[Sea-level pressure: 1018.5 mb]
Winds: calm
Visibility: 10 or more miles (16+ km)
Ceiling: at least 12,000 feet AGL
Clouds: sky clear below 12,000 feet AGL
Weather: no significant weather observed at this time

METAR text: KRVS 222353Z 11007KT 10SM SCT120 19/M01 A3006 RMK AO2 SLP184 T01941011 10217 20178 56016
Conditions at: KRVS (TULSA , OK, US) observed 2353 UTC 22 March 2019
Temperature: 19.4°C (67°F)
Dewpoint: -1.1°C (30°F) [RH = 25%]
Pressure (altimeter): 30.06 inches Hg (1018.0 mb)
[Sea-level pressure: 1018.4 mb]
Winds: from the ESE (110 degrees) at 8 MPH (7 knots; 3.6 m/s)
Visibility: 10 or more miles (16+ km)
Ceiling: at least 12,000 feet AGL
Clouds: scattered clouds at 12000 feet AGL
Weather: no significant weather observed at this time

METAR text: KRVS 222253Z 16006KT 10SM BKN120 21/M02 A3007 RMK AO2 SLP186 T02061017
Conditions at: KRVS (TULSA , OK, US) observed 2253 UTC 22 March 2019
Temperature: 20.6°C (69°F)
Dewpoint: -1.7°C (29°F) [RH = 22%]
Pressure (altimeter): 30.07 inches Hg (1018.4 mb)
[Sea-level pressure: 1018.6 mb]
Winds: from the SSE (160 degrees) at 7 MPH (6 knots; 3.1 m/s)
Visibility: 10 or more miles (16+ km)
Ceiling: 12000 feet AGL
Clouds: broken clouds at 12000 feet AGL
Weather: no significant weather observed at this time

METAR text: KRVS 222153Z 15005KT 10SM CLR 21/M02 A3008 RMK AO2 SLP189 T02061017
Conditions at: KRVS (TULSA , OK, US) observed 2153 UTC 22 March 2019
Temperature: 20.6°C (69°F)
Dewpoint: -1.7°C (29°F) [RH = 22%]
Pressure (altimeter): 30.08 inches Hg (1018.7 mb)
[Sea-level pressure: 1018.9 mb]
Winds: from the SSE (150 degrees) at 6 MPH (5 knots; 2.6 m/s)
Visibility: 10 or more miles (16+ km)
Ceiling: at least 12,000 feet AGL
Clouds: sky clear below 12,000 feet AGL
Weather: no significant weather observed at this time

METAR text: KRVS 222053Z 11007KT 10SM CLR 21/M02 A3011 RMK AO2 SLP199 T02111017 58028
Conditions at: KRVS (TULSA , OK, US) observed 2053 UTC 22 March 2019
Temperature: 21.1°C (70°F)
Dewpoint: -1.7°C (29°F) [RH = 22%]
Pressure (altimeter): 30.11 inches Hg (1019.7 mb)
[Sea-level pressure: 1019.9 mb]
Winds: from the ESE (110 degrees) at 8 MPH (7 knots; 3.6 m/s)
Visibility: 10 or more miles (16+ km)
Ceiling: at least 12,000 feet AGL
Clouds: sky clear below 12,000 feet AGL
Weather: no significant weather observed at this time

METAR text: KRVS 221953Z VRB06KT 10SM CLR 21/M01 A3014 RMK AO2 SLP209 T02111006
Conditions at: KRVS (TULSA , OK, US) observed 1953 UTC 22 March 2019
Temperature: 21.1°C (70°F)
Dewpoint: -0.6°C (31°F) [RH = 23%]
Pressure (altimeter): 30.14 inches Hg (1020.7 mb)
[Sea-level pressure: 1020.9 mb]
Winds: variable direction winds at 7 MPH (6 knots; 3.1 m/s)
Visibility: 10 or more miles (16+ km)
Ceiling: at least 12,000 feet AGL
Clouds: sky clear below 12,000 feet AGL
Weather: no significant weather observed at this time

METAR text: KRVS 221853Z 05005KT 10SM CLR 19/M01 A3018 RMK AO2 SLP222 T01941006
Conditions at: KRVS (TULSA , OK, US) observed 1853 UTC 22 March 2019
Temperature: 19.4°C (67°F)
Dewpoint: -0.6°C (31°F) [RH = 26%]
Pressure (altimeter): 30.18 inches Hg (1022.1 mb)
[Sea-level pressure: 1022.2 mb]
Winds: from the NE (50 degrees) at 6 MPH (5 knots; 2.6 m/s)
Visibility: 10 or more miles (16+ km)
Ceiling: at least 12,000 feet AGL
Clouds: sky clear below 12,000 feet AGL
Weather: no significant weather observed at this time

METAR text: KRVS 221753Z VRB04KT 10SM CLR 18/01 A3020 RMK AO2 SLP229 T01830011 10189 20011 58014
Conditions at: KRVS (TULSA , OK, US) observed 1753 UTC 22 March 2019
Temperature: 18.3°C (65°F)
Dewpoint: 1.1°C (34°F) [RH = 31%]
Pressure (altimeter): 30.20 inches Hg (1022.8 mb)
[Sea-level pressure: 1022.9 mb]
Winds: variable direction winds at 5 MPH (4 knots; 2.1 m/s)
Visibility: 10 or more miles (16+ km)
Ceiling: at least 12,000 feet AGL
Clouds: sky clear below 12,000 feet AGL
Weather: no significant weather observed at this time

METAR text: KRVS 221653Z 10003KT 10SM CLR 17/01 A3021 RMK AO2 SLP235 T01670011
Conditions at: KRVS (TULSA , OK, US) observed 1653 UTC 22 March 2019
Temperature: 16.7°C (62°F)
Dewpoint: 1.1°C (34°F) [RH = 35%]
Pressure (altimeter): 30.21 inches Hg (1023.1 mb)
[Sea-level pressure: 1023.5 mb]
Winds: from the E (100 degrees) at 3 MPH (3 knots; 1.5 m/s)
Visibility: 10 or more miles (16+ km)
Ceiling: at least 12,000 feet AGL
Clouds: sky clear below 12,000 feet AGL
Weather: no significant weather observed at this time

METAR text: KRVS 221553Z 14004KT 10SM CLR 15/03 A3024 RMK AO2 SLP244 T01500028
Conditions at: KRVS (TULSA , OK, US) observed 1553 UTC 22 March 2019
Temperature: 15.0°C (59°F)
Dewpoint: 2.8°C (37°F) [RH = 44%]
Pressure (altimeter): 30.24 inches Hg (1024.1 mb)
[Sea-level pressure: 1024.4 mb]
Winds: from the SE (140 degrees) at 5 MPH (4 knots; 2.1 m/s)
Visibility: 10 or more miles (16+ km)
Ceiling: at least 12,000 feet AGL
Clouds: sky clear below 12,000 feet AGL
Weather: no significant weather observed at this time

METAR text: KRVS 221453Z 11003KT 10SM CLR 11/03 A3024 RMK AO2 SLP244 T01110033 53013
Conditions at: KRVS (TULSA , OK, US) observed 1453 UTC 22 March 2019
Temperature: 11.1°C (52°F)
Dewpoint: 3.3°C (38°F) [RH = 59%]
Pressure (altimeter): 30.24 inches Hg (1024.1 mb)
[Sea-level pressure: 1024.4 mb]
Winds: from the ESE (110 degrees) at 3 MPH (3 knots; 1.5 m/s)
Visibility: 10 or more miles (16+ km)
Ceiling: at least 12,000 feet AGL
Clouds: sky clear below 12,000 feet AGL
Weather: no significant weather observed at this time

METAR text: KRVS 221353Z 00000KT 10SM CLR 06/03 A3022 RMK AO2 SLP237 T00610033
Conditions at: KRVS (TULSA , OK, US) observed 1353 UTC 22 March 2019
Temperature: 6.1°C (43°F)
Dewpoint: 3.3°C (38°F) [RH = 82%]
Pressure (altimeter): 30.22 inches Hg (1023.5 mb)
[Sea-level pressure: 1023.7 mb]
Winds: calm
Visibility: 10 or more miles (16+ km)
Ceiling: at least 12,000 feet AGL
Clouds: sky clear below 12,000 feet AGL
Weather: no significant weather observed at this time

METAR text: KRVS 221253Z 00000KT 10SM CLR 02/01 A3021 RMK AO2 SLP236 T00220006
Conditions at: KRVS (TULSA , OK, US) observed 1253 UTC 22 March 2019
Temperature: 2.2°C (36°F)
Dewpoint: 0.6°C (33°F) [RH = 89%]
Pressure (altimeter): 30.21 inches Hg (1023.1 mb)
[Sea-level pressure: 1023.6 mb]
Winds: calm
Visibility: 10 or more miles (16+ km)
Ceiling: at least 12,000 feet AGL
Clouds: sky clear below 12,000 feet AGL
Weather: no significant weather observed at this time

METAR text: KRVS 221153Z 00000KT 10SM CLR 02/01 A3020 RMK AO2 SLP231 T00220006 10067 20017 53007
Conditions at: KRVS (TULSA , OK, US) observed 1153 UTC 22 March 2019
Temperature: 2.2°C (36°F)
Dewpoint: 0.6°C (33°F) [RH = 89%]
Pressure (altimeter): 30.20 inches Hg (1022.8 mb)
[Sea-level pressure: 1023.1 mb]
Winds: calm
Visibility: 10 or more miles (16+ km)
Ceiling: at least 12,000 feet AGL
Clouds: sky clear below 12,000 feet AGL
Weather: no significant weather observed at this time

METAR text: KRVS 221053Z AUTO 00000KT 10SM CLR 02/00 A3018 RMK AO2 SLP222 T00170000 TSNO
Conditions at: KRVS (TULSA , OK, US) observed 1053 UTC 22 March 2019
Temperature: 1.7°C (35°F)
Dewpoint: 0.0°C (32°F) [RH = 88%]
Pressure (altimeter): 30.18 inches Hg (1022.1 mb)
[Sea-level pressure: 1022.2 mb]
Winds: calm
Visibility: 10 or more miles (16+ km)
Ceiling: at least 12,000 feet AGL
Clouds: sky clear below 12,000 feet AGL
Weather: automated observation with no human augmentation;
there may or may not be significant weather present at this time

Forecast for: KRVS (TULSA , OK, US)
Text: KRVS 232103Z 2321/2418 16012KT P6SM VCSH OVC050
Forecast period: 2100 UTC 23 March 2019 to 0000 UTC 24 March 2019
Forecast type: FROM: standard forecast or significant change
Winds: from the SSE (160 degrees) at 14 MPH (12 knots; 6.2 m/s)
Visibility: 6 or more miles 10+ km)
Ceiling: 5000 feet AGL
Clouds: overcast cloud deck at 5000 feet AGL
Weather: VCSH  (showers in vicinity)
Text: TEMPO 2321/2324 BKN015
Forecast period: 2100 UTC 23 March 2019 to 0000 UTC 24 March 2019
Forecast type: TEMPORARY: The following changes expected for less than half the time period
Visibility: missing
Ceiling: 1500 feet AGL
Clouds: broken clouds at 1500 feet AGL
Weather: no significant weather forecast for this period
Text: FM240000 16010KT P6SM BKN040
Forecast period: 0000 to 0600 UTC 24 March 2019
Forecast type: FROM: standard forecast or significant change
Winds: from the SSE (160 degrees) at 12 MPH (10 knots; 5.1 m/s)
Visibility: 6 or more miles 10+ km)
Ceiling: 4000 feet AGL
Clouds: broken clouds at 4000 feet AGL
Weather: no significant weather forecast for this period
Text: TEMPO 2400/2403 3SM -TSRA BR BKN025CB
Forecast period: 0000 to 0300 UTC 24 March 2019
Forecast type: TEMPORARY: The following changes expected for less than half the time period
Visibility: 3 miles (5 km)
Ceiling: 2500 feet AGL
Clouds: broken clouds at 2500 feet AGL
Weather: -TSRA BR  (light rain associated with thunderstorm(s), mist)
Text: FM240600 18005KT 5SM BR BKN025
Forecast period: 0600 to 1600 UTC 24 March 2019
Forecast type: FROM: standard forecast or significant change
Winds: from the S (180 degrees) at 6 MPH (5 knots; 2.6 m/s)
Visibility: 5 miles (8 km)
Ceiling: 2500 feet AGL
Clouds: broken clouds at 2500 feet AGL
Weather: BR  (mist)
Text: FM241600 32007KT P6SM BKN025
Forecast period: 1600 to 1800 UTC 24 March 2019
Forecast type: FROM: standard forecast or significant change
Winds: from the NW (320 degrees) at 8 MPH (7 knots; 3.6 m/s)
Visibility: 6 or more miles 10+ km)
Ceiling: 2500 feet AGL
Clouds: broken clouds at 2500 feet AGL
Weather: no significant weather forecast for this period